createdAt,value
2018-08-04T00:00:00.313Z,7.93
2018-08-04T00:03:03.609Z,7.60
2018-08-04T00:06:06.808Z,8.47
2018-08-04T00:09:11.786Z,8.17
2018-08-04T00:12:16.174Z,7.87
2018-08-04T00:15:19.704Z,7.77
2018-08-04T00:18:22.898Z,7.80
2018-08-04T00:21:26.166Z,8.50
2018-08-04T00:24:29.486Z,7.90
2018-08-04T00:27:33.792Z,9.53
2018-08-04T00:30:37.107Z,9.17
2018-08-04T00:33:40.390Z,9.37
2018-08-04T00:36:44.131Z,9.50
2018-08-04T00:39:47.392Z,9.73
2018-08-04T00:42:50.719Z,9.27
2018-08-04T00:45:55.003Z,9.53
2018-08-04T00:48:58.295Z,9.20
2018-08-04T00:52:01.499Z,9.20
2018-08-04T00:55:05.147Z,9.17
2018-08-04T00:58:08.396Z,8.47
2018-08-04T01:01:11.615Z,8.40
2018-08-04T01:04:14.908Z,9.27
2018-08-04T01:07:18.206Z,8.70
2018-08-04T01:10:27.258Z,8.80
2018-08-04T01:13:30.563Z,9.00
2018-08-04T01:16:33.842Z,8.30
2018-08-04T01:19:37.186Z,8.60
2018-08-04T01:22:40.542Z,8.70
2018-08-04T01:25:44.787Z,9.13
2018-08-04T01:28:48.039Z,8.70
2018-08-04T01:31:51.449Z,9.27
2018-08-04T01:34:54.732Z,9.23
2018-08-04T01:37:58.091Z,8.90
2018-08-04T01:41:01.468Z,9.50
2018-08-04T01:44:05.072Z,9.57
2018-08-04T01:47:08.330Z,9.33
2018-08-04T01:50:11.647Z,9.07
2018-08-04T01:53:14.950Z,8.80
2018-08-04T01:56:18.227Z,9.30
2018-08-04T01:59:21.566Z,8.70
2018-08-04T02:02:24.833Z,8.80
2018-08-04T02:05:28.127Z,8.90
2018-08-04T02:08:31.447Z,8.77
2018-08-04T02:11:34.935Z,8.67
2018-08-04T02:14:38.218Z,9.13
2018-08-04T02:17:41.399Z,8.23
2018-08-04T02:20:45.722Z,9.40
2018-08-04T02:23:48.920Z,8.73
2018-08-04T02:26:52.232Z,8.90
2018-08-04T02:29:55.515Z,8.47
2018-08-04T02:32:58.712Z,8.93
2018-08-04T02:36:02.011Z,9.67
2018-08-04T02:39:07.138Z,8.77
2018-08-04T02:42:10.439Z,8.83
2018-08-04T02:45:14.099Z,9.10
2018-08-04T02:48:17.368Z,8.60
2018-08-04T02:51:20.847Z,8.37
2018-08-04T02:54:24.177Z,9.47
2018-08-04T02:57:27.466Z,9.43
2018-08-04T03:00:30.767Z,9.43
2018-08-04T03:03:33.927Z,8.90
2018-08-04T03:06:37.239Z,8.97
2018-08-04T03:09:40.552Z,9.57
2018-08-04T03:12:44.181Z,9.07
2018-08-04T03:15:47.472Z,9.30
2018-08-04T03:18:50.750Z,9.20
2018-08-04T03:21:53.946Z,9.00
2018-08-04T03:24:57.284Z,9.20
2018-08-04T03:28:01.570Z,9.40
2018-08-04T03:31:04.868Z,9.13
2018-08-04T03:34:08.139Z,9.43
2018-08-04T03:37:11.304Z,9.47
2018-08-04T03:40:15.036Z,9.33
2018-08-04T03:43:18.362Z,9.40
2018-08-04T03:46:21.660Z,9.10
2018-08-04T03:49:24.952Z,9.67
2018-08-04T03:52:28.173Z,9.13
2018-08-04T03:55:31.469Z,9.80
2018-08-04T03:58:34.711Z,9.77
2018-08-04T04:01:38.043Z,9.03
2018-08-04T04:04:41.332Z,10.03
2018-08-04T04:07:45.123Z,8.97
2018-08-04T04:10:48.440Z,9.47
2018-08-04T04:13:52.107Z,9.63
2018-08-04T04:16:55.348Z,9.43
2018-08-04T04:19:58.635Z,9.60
2018-08-04T04:23:01.960Z,9.97
2018-08-04T04:26:05.236Z,11.10
2018-08-04T04:29:08.525Z,9.93
2018-08-04T04:32:11.824Z,9.90
2018-08-04T04:35:15.935Z,10.10
2018-08-04T04:38:19.079Z,10.13
2018-08-04T04:41:22.328Z,9.83
2018-08-04T04:44:25.534Z,9.63
2018-08-04T04:47:28.857Z,10.07
2018-08-04T04:50:32.140Z,10.60
2018-08-04T04:53:35.419Z,9.87
2018-08-04T04:56:41.922Z,10.53
2018-08-04T04:59:45.923Z,9.47
2018-08-04T05:02:49.195Z,9.40
2018-08-04T05:05:52.566Z,10.77
2018-08-04T05:08:55.798Z,10.07
2018-08-04T05:11:59.007Z,9.77
2018-08-04T05:15:02.319Z,10.03
2018-08-04T05:18:05.678Z,9.93
2018-08-04T05:21:08.874Z,9.73
2018-08-04T05:24:12.226Z,9.80
2018-08-04T05:27:16.463Z,10.50
2018-08-04T05:30:19.701Z,9.97
2018-08-04T05:33:23.019Z,10.50
2018-08-04T05:36:26.307Z,11.23
2018-08-04T05:39:29.479Z,10.83
2018-08-04T05:42:32.811Z,11.13
2018-08-04T05:45:36.083Z,10.70
2018-08-04T05:48:39.263Z,11.30
2018-08-04T05:51:42.575Z,11.07
2018-08-04T05:54:47.345Z,11.00
2018-08-04T05:57:50.651Z,11.40
2018-08-04T06:00:53.923Z,12.27
2018-08-04T06:03:57.193Z,11.10
2018-08-04T06:07:00.414Z,10.87
2018-08-04T06:10:03.707Z,11.60
2018-08-04T06:13:07.029Z,10.73
2018-08-04T06:16:10.285Z,11.67
2018-08-04T06:19:14.342Z,11.53
2018-08-04T06:22:21.023Z,11.20
2018-08-04T06:25:24.287Z,11.27
2018-08-04T06:28:27.588Z,11.40
2018-08-04T06:31:30.999Z,10.97
2018-08-04T06:34:34.279Z,11.60
2018-08-04T06:37:37.563Z,10.93
2018-08-04T06:40:40.859Z,11.07
2018-08-04T06:43:45.136Z,11.20
2018-08-04T06:46:48.377Z,11.30
2018-08-04T06:49:51.678Z,11.73
2018-08-04T06:52:54.908Z,11.40
2018-08-04T06:55:58.210Z,10.97
2018-08-04T06:59:01.479Z,11.37
2018-08-04T07:02:04.674Z,11.70
2018-08-04T07:05:07.975Z,10.70
2018-08-04T07:08:11.252Z,10.87
2018-08-04T07:11:15.212Z,10.93
2018-08-04T07:14:18.460Z,11.27
2018-08-04T07:17:21.770Z,10.90
2018-08-04T07:20:25.075Z,10.97
2018-08-04T07:23:28.397Z,11.33
2018-08-04T07:26:31.670Z,11.13
2018-08-04T07:29:35.047Z,11.43
2018-08-04T07:32:38.380Z,11.43
2018-08-04T07:35:41.673Z,11.30
2018-08-04T07:38:45.246Z,11.23
2018-08-04T07:41:48.644Z,11.20
2018-08-04T07:44:51.872Z,11.43
2018-08-04T07:47:55.168Z,11.37
2018-08-04T07:50:58.589Z,10.90
2018-08-04T07:54:01.852Z,11.50
2018-08-04T07:57:05.382Z,10.73
2018-08-04T08:00:09.083Z,11.63
2018-08-04T08:03:12.374Z,11.77
2018-08-04T08:06:16.694Z,11.10
2018-08-04T08:09:19.987Z,11.73
2018-08-04T08:12:23.498Z,11.33
2018-08-04T08:15:26.794Z,11.47
2018-08-04T08:18:29.990Z,11.57
2018-08-04T08:21:33.327Z,10.63
2018-08-04T08:24:36.466Z,11.20
2018-08-04T08:27:40.102Z,11.33
2018-08-04T08:30:43.383Z,11.20
2018-08-04T08:33:46.990Z,11.17
2018-08-04T08:36:50.359Z,11.53
2018-08-04T08:39:53.673Z,11.27
2018-08-04T08:42:57.895Z,11.60
2018-08-04T08:46:01.063Z,11.57
2018-08-04T08:49:04.390Z,11.00
2018-08-04T08:52:07.680Z,10.87
2018-08-04T08:55:10.883Z,11.43
2018-08-04T08:58:15.243Z,10.80
2018-08-04T09:01:18.495Z,10.23
2018-08-04T09:04:21.788Z,10.80
2018-08-04T09:07:25.102Z,10.77
2018-08-04T09:10:28.384Z,10.47
2018-08-04T09:13:31.680Z,10.43
2018-08-04T09:16:35.110Z,10.40
2018-08-04T09:19:38.430Z,11.10
2018-08-04T09:22:41.763Z,10.17
2018-08-04T09:25:46.334Z,10.57
2018-08-04T09:28:49.594Z,10.23
2018-08-04T09:31:52.918Z,11.50
2018-08-04T09:34:57.218Z,10.63
2018-08-04T09:38:00.431Z,10.80
2018-08-04T09:41:04.167Z,11.27
2018-08-04T09:44:07.573Z,10.93
2018-08-04T09:47:12.786Z,11.07
2018-08-04T09:50:17.438Z,10.17
2018-08-04T09:53:21.731Z,10.30
2018-08-04T09:56:25.248Z,10.30
2018-08-04T09:59:28.530Z,10.70
2018-08-04T10:02:31.726Z,10.00
2018-08-04T10:05:36.044Z,11.37
2018-08-04T10:08:39.300Z,11.23
2018-08-04T10:11:42.639Z,11.13
2018-08-04T10:14:47.190Z,11.30
2018-08-04T10:17:50.337Z,10.97
2018-08-04T10:20:53.842Z,11.07
2018-08-04T10:23:57.171Z,10.37
2018-08-04T10:27:00.695Z,11.30
2018-08-04T10:30:07.472Z,11.17
2018-08-04T10:33:10.766Z,10.90
2018-08-04T10:36:14.504Z,10.50
2018-08-04T10:39:17.817Z,10.83
2018-08-04T10:42:21.380Z,10.87
2018-08-04T10:45:24.757Z,10.17
2018-08-04T10:48:28.015Z,10.27
2018-08-04T10:51:31.247Z,10.50
2018-08-04T10:54:35.531Z,10.33
2018-08-04T10:57:38.862Z,10.43
2018-08-04T11:00:42.057Z,10.03
2018-08-04T11:03:46.418Z,9.73
2018-08-04T11:06:49.578Z,9.90
2018-08-04T11:09:53.020Z,9.43
2018-08-04T11:12:56.512Z,8.87
2018-08-04T11:15:59.758Z,9.20
2018-08-04T11:19:03.292Z,8.60
2018-08-04T11:22:06.616Z,7.93
2018-08-04T11:25:09.851Z,8.63
2018-08-04T11:28:13.163Z,8.23
2018-08-04T11:31:17.443Z,8.30
2018-08-04T11:34:20.677Z,8.20
2018-08-04T11:37:23.961Z,7.80
2018-08-04T11:40:27.283Z,7.70
2018-08-04T11:43:30.560Z,8.00
2018-08-04T11:46:33.855Z,7.80
2018-08-04T11:49:37.275Z,7.57
2018-08-04T11:52:40.561Z,7.87
2018-08-04T11:55:43.783Z,7.23
2018-08-04T11:58:48.003Z,7.37
2018-08-04T12:01:51.281Z,7.23
2018-08-04T12:04:54.611Z,7.37
2018-08-04T12:07:57.880Z,7.80
2018-08-04T12:11:01.183Z,8.23
2018-08-04T12:14:09.416Z,7.57
2018-08-04T12:17:12.694Z,7.67
2018-08-04T12:20:17.115Z,8.80
2018-08-04T12:23:20.458Z,7.50
2018-08-04T12:26:23.623Z,7.80
2018-08-04T12:29:26.871Z,7.23
2018-08-04T12:32:30.075Z,8.03
2018-08-04T12:35:33.403Z,7.50
2018-08-04T12:38:36.658Z,7.53
2018-08-04T12:41:40.218Z,7.40
2018-08-04T12:44:43.392Z,7.47
2018-08-04T12:47:46.768Z,7.30
2018-08-04T12:50:50.319Z,6.87
2018-08-04T12:53:53.719Z,8.13
2018-08-04T12:56:56.955Z,7.13
2018-08-04T13:00:00.152Z,7.20
2018-08-04T13:03:03.506Z,8.03
2018-08-04T13:06:06.771Z,7.90
2018-08-04T13:09:11.099Z,8.00
2018-08-04T13:12:15.443Z,7.47
2018-08-04T13:15:18.770Z,7.50
2018-08-04T13:18:23.066Z,7.50
2018-08-04T13:21:26.258Z,7.13
2018-08-04T13:24:29.499Z,7.27
2018-08-04T13:27:43.755Z,7.57
2018-08-04T13:30:48.610Z,7.47
2018-08-04T13:33:51.836Z,7.83
2018-08-04T13:36:55.176Z,7.60
2018-08-04T13:39:58.436Z,7.67
2018-08-04T13:43:01.746Z,6.37
2018-08-04T13:46:06.161Z,6.53
2018-08-04T13:49:09.715Z,6.37
2018-08-04T13:52:12.857Z,6.23
2018-08-04T13:55:16.159Z,6.67
2018-08-04T13:58:19.403Z,7.20
2018-08-04T14:01:24.803Z,6.93
2018-08-04T14:04:28.166Z,6.97
2018-08-04T14:07:31.466Z,6.47
2018-08-04T14:10:35.405Z,7.10
2018-08-04T14:13:38.683Z,6.63
2018-08-04T14:16:41.965Z,7.27
2018-08-04T14:19:46.318Z,6.70
2018-08-04T14:22:49.649Z,6.80
2018-08-04T14:25:52.882Z,6.93
2018-08-04T14:28:56.159Z,6.63
2018-08-04T14:31:59.307Z,7.07
2018-08-04T14:35:03.767Z,6.47
2018-08-04T14:38:07.574Z,6.43
2018-08-04T14:41:10.903Z,6.73
2018-08-04T14:44:14.337Z,6.40
2018-08-04T14:47:17.612Z,6.63
2018-08-04T14:50:20.911Z,6.90
2018-08-04T14:53:24.111Z,6.23
2018-08-04T14:56:27.386Z,6.50
2018-08-04T14:59:30.588Z,8.73
2018-08-04T15:02:33.929Z,7.80
2018-08-04T15:05:38.056Z,7.27
2018-08-04T15:08:41.299Z,6.97
2018-08-04T15:11:44.611Z,7.67
2018-08-04T15:14:47.824Z,7.80
2018-08-04T15:17:51.099Z,7.73
2018-08-04T15:20:54.519Z,7.10
2018-08-04T15:23:58.935Z,7.40
2018-08-04T15:27:02.334Z,7.10
2018-08-04T15:30:06.067Z,7.10
2018-08-04T15:33:09.597Z,7.67
2018-08-04T15:36:12.827Z,7.60
2018-08-04T15:39:15.994Z,7.03
2018-08-04T15:42:19.416Z,7.63
2018-08-04T15:45:22.716Z,7.17
2018-08-04T15:48:26.119Z,6.77
2018-08-04T15:51:29.760Z,7.63
2018-08-04T15:54:33.027Z,7.17
2018-08-04T15:57:36.479Z,7.63
2018-08-04T16:00:39.821Z,7.30
2018-08-04T16:03:43.248Z,7.33
2018-08-04T16:06:46.624Z,7.60
2018-08-04T16:09:49.961Z,7.23
2018-08-04T16:12:53.214Z,6.70
2018-08-04T16:15:57.558Z,6.60
2018-08-04T16:19:00.863Z,6.73
2018-08-04T16:22:04.156Z,6.67
2018-08-04T16:25:08.675Z,6.47
2018-08-04T16:28:12.458Z,6.10
2018-08-04T16:31:15.770Z,5.93
2018-08-04T16:34:19.033Z,5.80
2018-08-04T16:37:22.237Z,6.17
2018-08-04T16:40:25.567Z,6.70
2018-08-04T16:43:28.855Z,7.27
2018-08-04T16:46:32.146Z,6.10
2018-08-04T16:49:35.434Z,6.13
2018-08-04T16:52:39.764Z,5.90
2018-08-04T16:55:43.041Z,6.13
2018-08-04T16:58:46.343Z,6.47
2018-08-04T17:01:49.642Z,6.30
2018-08-04T17:04:52.958Z,6.43
2018-08-04T17:07:56.231Z,6.20
2018-08-04T17:10:59.443Z,5.97
2018-08-04T17:14:02.782Z,6.60
2018-08-04T17:17:06.578Z,5.90
2018-08-04T17:20:10.783Z,8.00
2018-08-04T17:23:14.395Z,6.60
2018-08-04T17:26:17.676Z,6.20
2018-08-04T17:29:21.616Z,6.30
2018-08-04T17:32:24.871Z,6.23
2018-08-04T17:35:28.191Z,5.93
2018-08-04T17:38:31.439Z,5.97
2018-08-04T17:41:34.665Z,6.10
2018-08-04T17:44:39.110Z,5.60
2018-08-04T17:47:42.655Z,5.77
2018-08-04T17:50:45.875Z,6.67
2018-08-04T17:53:49.194Z,7.03
2018-08-04T17:56:52.546Z,8.00
2018-08-04T17:59:55.699Z,8.30
2018-08-04T18:02:59.139Z,10.07
2018-08-04T18:06:02.285Z,7.83
2018-08-04T18:09:08.660Z,12.63
2018-08-04T18:12:13.211Z,9.30
2018-08-04T18:15:16.475Z,7.40
2018-08-04T18:18:19.697Z,6.60
2018-08-04T18:21:22.945Z,7.50
2018-08-04T18:24:26.158Z,6.77
2018-08-04T18:27:29.431Z,6.63
2018-08-04T18:30:32.631Z,6.80
2018-08-04T18:33:35.868Z,6.17
2018-08-04T18:36:40.040Z,5.80
2018-08-04T18:39:43.392Z,6.23
2018-08-04T18:42:46.700Z,6.13
2018-08-04T18:45:49.987Z,6.50
2018-08-04T18:48:53.263Z,6.33
2018-08-04T18:51:56.581Z,6.90
2018-08-04T18:54:59.895Z,6.10
2018-08-04T18:58:03.168Z,6.50
2018-08-04T19:01:06.682Z,6.00
2018-08-04T19:04:09.939Z,6.43
2018-08-04T19:07:13.237Z,6.30
2018-08-04T19:10:16.467Z,6.30
2018-08-04T19:13:19.728Z,6.70
2018-08-04T19:16:23.102Z,6.17
2018-08-04T19:19:26.311Z,6.50
2018-08-04T19:22:29.813Z,6.50
2018-08-04T19:25:33.035Z,6.10
2018-08-04T19:28:36.412Z,5.87
2018-08-04T19:31:39.543Z,5.57
2018-08-04T19:34:42.840Z,5.97
2018-08-04T19:37:46.175Z,5.93
2018-08-04T19:40:49.530Z,5.80
2018-08-04T19:43:52.934Z,6.13
2018-08-04T19:46:57.235Z,5.57
2018-08-04T19:50:00.859Z,5.83
2018-08-04T19:53:04.155Z,6.63
2018-08-04T19:56:07.469Z,5.97
2018-08-04T19:59:11.412Z,5.10
2018-08-04T20:02:14.639Z,5.70
2018-08-04T20:05:17.920Z,4.93
2018-08-04T20:08:21.330Z,5.30
2018-08-04T20:11:24.831Z,5.63
2018-08-04T20:14:28.108Z,5.30
2018-08-04T20:17:32.355Z,5.53
2018-08-04T20:20:36.805Z,5.07
2018-08-04T20:23:41.177Z,5.33
2018-08-04T20:26:44.555Z,5.37
2018-08-04T20:29:47.791Z,5.13
2018-08-04T20:32:52.023Z,5.60
2018-08-04T20:36:02.428Z,5.27
2018-08-04T20:39:08.628Z,5.60
2018-08-04T20:42:12.384Z,5.57
2018-08-04T20:45:15.543Z,6.10
2018-08-04T20:48:18.870Z,5.73
2018-08-04T20:51:22.168Z,6.20
2018-08-04T20:54:26.509Z,5.60
2018-08-04T20:57:30.799Z,5.50
2018-08-04T21:00:38.825Z,5.67
2018-08-04T21:03:42.009Z,5.47
2018-08-04T21:06:45.483Z,5.80
2018-08-04T21:09:48.710Z,6.07
2018-08-04T21:12:51.991Z,5.20
2018-08-04T21:15:55.334Z,4.97
2018-08-04T21:18:58.729Z,4.97
2018-08-04T21:22:02.002Z,4.80
2018-08-04T21:25:05.295Z,6.57
2018-08-04T21:28:08.929Z,5.50
2018-08-04T21:31:12.167Z,7.70
2018-08-04T21:34:19.003Z,4.70
2018-08-04T21:37:22.363Z,5.73
2018-08-04T21:40:26.694Z,5.27
2018-08-04T21:43:29.978Z,4.60
2018-08-04T21:46:33.281Z,4.47
2018-08-04T21:49:36.603Z,3.80
2018-08-04T21:52:40.577Z,3.73
2018-08-04T21:55:44.053Z,3.60
2018-08-04T21:58:47.320Z,3.37
2018-08-04T22:01:53.721Z,3.77
2018-08-04T22:04:56.943Z,3.40
2018-08-04T22:08:12.578Z,3.23
2018-08-04T22:11:15.853Z,3.10
2018-08-04T22:14:19.154Z,2.93
2018-08-04T22:17:22.435Z,3.00
2018-08-04T22:20:26.402Z,3.30
2018-08-04T22:23:29.642Z,3.00
2018-08-04T22:26:32.855Z,3.07
2018-08-04T22:29:36.151Z,2.67
2018-08-04T22:32:42.122Z,2.87
2018-08-04T22:35:45.394Z,2.87
2018-08-04T22:38:48.724Z,2.77
2018-08-04T22:41:51.986Z,2.80
2018-08-04T22:46:10.299Z,3.13
2018-08-04T22:49:13.553Z,2.87
2018-08-04T22:52:16.835Z,2.90
2018-08-04T22:55:19.974Z,3.13
2018-08-04T22:58:23.270Z,3.00
2018-08-04T23:01:26.527Z,2.73
2018-08-04T23:04:29.730Z,3.10
2018-08-04T23:07:33.035Z,2.90
2018-08-04T23:10:37.153Z,2.80
2018-08-04T23:13:41.427Z,3.10
2018-08-04T23:16:44.750Z,2.87
2018-08-04T23:19:48.050Z,2.93
2018-08-04T23:22:51.446Z,3.20
2018-08-04T23:25:54.800Z,2.97
2018-08-04T23:28:58.035Z,3.17
2018-08-04T23:32:01.263Z,3.07
2018-08-04T23:35:04.535Z,3.13
2018-08-04T23:38:07.840Z,3.00
2018-08-04T23:41:12.172Z,3.13
2018-08-04T23:44:15.557Z,2.87
2018-08-04T23:47:22.269Z,3.07
2018-08-04T23:50:25.519Z,2.70
2018-08-04T23:53:28.869Z,3.00
2018-08-04T23:56:32.139Z,3.07
2018-08-04T23:59:35.426Z,2.60
